createdAt,value
2018-09-14T00:01:43.100Z,87.40
2018-09-14T00:04:11.680Z,87.40
2018-09-14T00:06:40.204Z,87.20
2018-09-14T00:09:11.736Z,87.30
2018-09-14T00:11:41.109Z,86.70
2018-09-14T00:14:09.956Z,86.40
2018-09-14T00:16:39.176Z,86.20
2018-09-14T00:19:07.734Z,86.90
2018-09-14T00:21:36.189Z,86.80
2018-09-14T00:24:12.110Z,87.20
2018-09-14T00:26:40.670Z,87.50
2018-09-14T00:29:09.445Z,87.40
2018-09-14T00:31:37.791Z,87.30
2018-09-14T00:34:06.443Z,88.80
2018-09-14T00:36:34.939Z,88.40
2018-09-14T00:39:03.849Z,89.00
2018-09-14T00:41:32.675Z,88.90
2018-09-14T00:44:01.204Z,89.50
2018-09-14T00:46:29.782Z,87.90
2018-09-14T00:48:58.069Z,89.00
2018-09-14T00:51:26.688Z,88.50
2018-09-14T00:53:56.669Z,89.10
2018-09-14T00:56:25.222Z,90.00
2018-09-14T00:58:53.884Z,88.00
2018-09-14T01:01:22.312Z,87.50
2018-09-14T01:03:50.977Z,87.50
2018-09-14T01:06:19.500Z,87.00
2018-09-14T01:08:48.039Z,86.60
2018-09-14T01:11:17.686Z,87.20
2018-09-14T01:13:46.197Z,86.40
2018-09-14T01:16:14.985Z,87.30
2018-09-14T01:18:43.980Z,87.30
2018-09-14T01:21:12.562Z,87.30
2018-09-14T01:23:40.824Z,87.60
2018-09-14T01:26:09.765Z,87.50
2018-09-14T01:28:37.995Z,87.30
2018-09-14T01:31:06.892Z,87.30
2018-09-14T01:33:35.400Z,86.90
2018-09-14T01:36:11.012Z,86.60
2018-09-14T01:38:39.864Z,86.70
2018-09-14T01:41:09.140Z,88.10
2018-09-14T01:43:37.582Z,87.20
2018-09-14T01:46:06.253Z,87.70
2018-09-14T01:48:34.502Z,87.70
2018-09-14T01:51:03.038Z,88.20
2018-09-14T01:53:31.926Z,88.30
2018-09-14T01:56:00.675Z,88.50
2018-09-14T01:58:29.549Z,87.00
2018-09-14T02:00:58.354Z,85.90
2018-09-14T02:03:27.112Z,85.80
2018-09-14T02:05:55.334Z,86.20
2018-09-14T02:08:24.760Z,86.00
2018-09-14T02:10:53.179Z,86.70
2018-09-14T02:13:21.784Z,86.80
2018-09-14T02:15:50.747Z,87.10
2018-09-14T02:18:19.360Z,87.00
2018-09-14T02:20:47.603Z,86.10
2018-09-14T02:23:16.595Z,86.00
2018-09-14T02:25:45.149Z,86.40
2018-09-14T02:28:13.397Z,86.20
2018-09-14T02:30:42.587Z,85.80
2018-09-14T02:33:11.104Z,85.40
2018-09-14T02:35:39.949Z,85.40
2018-09-14T02:38:08.476Z,85.80
2018-09-14T02:40:36.825Z,86.10
2018-09-14T02:43:05.379Z,86.00
2018-09-14T02:45:34.332Z,87.20
2018-09-14T02:48:03.302Z,86.30
2018-09-14T02:50:32.887Z,86.80
2018-09-14T02:53:02.044Z,87.10
2018-09-14T02:55:30.731Z,87.10
2018-09-14T02:57:59.809Z,87.10
2018-09-14T03:00:28.055Z,86.80
2018-09-14T03:02:57.103Z,85.80
2018-09-14T03:05:26.365Z,84.60
2018-09-14T03:07:54.644Z,85.20
2018-09-14T03:10:23.565Z,84.80
2018-09-14T03:12:52.488Z,84.70
2018-09-14T03:15:20.826Z,84.90
2018-09-14T03:17:49.946Z,84.40
2018-09-14T03:20:18.207Z,84.50
2018-09-14T03:22:47.080Z,84.60
2018-09-14T03:25:15.347Z,84.50
2018-09-14T03:27:44.089Z,84.80
2018-09-14T03:30:12.929Z,85.40
2018-09-14T03:32:41.209Z,85.70
2018-09-14T03:35:10.100Z,85.80
2018-09-14T03:37:38.668Z,86.10
2018-09-14T03:40:07.582Z,85.90
2018-09-14T03:42:36.963Z,86.30
2018-09-14T03:45:06.334Z,85.30
2018-09-14T03:47:34.922Z,85.20
2018-09-14T03:50:04.341Z,85.00
2018-09-14T03:52:32.883Z,85.30
2018-09-14T03:55:02.076Z,85.60
2018-09-14T03:57:31.852Z,85.00
2018-09-14T04:00:00.768Z,85.50
2018-09-14T04:02:29.265Z,85.70
2018-09-14T04:04:57.531Z,86.20
2018-09-14T04:07:26.096Z,86.90
2018-09-14T04:09:54.640Z,86.20
2018-09-14T04:12:23.517Z,85.60
2018-09-14T04:14:52.031Z,83.90
2018-09-14T04:17:20.298Z,84.50
2018-09-14T04:19:48.788Z,84.40
2018-09-14T04:22:17.864Z,84.40
2018-09-14T04:24:46.109Z,84.90
2018-09-14T04:27:15.568Z,85.40
2018-09-14T04:29:44.157Z,85.40
2018-09-14T04:32:12.412Z,84.60
2018-09-14T04:34:40.748Z,84.80
2018-09-14T04:37:09.360Z,85.60
2018-09-14T04:39:38.239Z,84.50
2018-09-14T04:42:07.514Z,85.00
2018-09-14T04:44:35.752Z,84.40
2018-09-14T04:47:05.408Z,85.10
2018-09-14T04:49:33.953Z,85.10
2018-09-14T04:52:05.083Z,84.90
2018-09-14T04:54:33.320Z,83.80
2018-09-14T04:57:02.028Z,84.40
2018-09-14T04:59:30.384Z,84.40
2018-09-14T05:04:27.109Z,83.50
2018-09-14T05:06:55.383Z,84.70
2018-09-14T05:09:24.826Z,84.50
2018-09-14T05:11:53.354Z,83.90
2018-09-14T05:14:21.684Z,84.20
2018-09-14T05:16:49.940Z,84.50
2018-09-14T05:19:18.498Z,84.10
2018-09-14T05:21:46.881Z,84.70
2018-09-14T05:24:15.130Z,84.30
2018-09-14T05:26:44.304Z,83.80
2018-09-14T05:29:15.377Z,83.00
2018-09-14T05:31:43.918Z,83.20
2018-09-14T05:34:12.465Z,83.10
2018-09-14T05:36:41.276Z,82.40
2018-09-14T05:39:10.499Z,83.00
2018-09-14T05:41:39.744Z,83.00
2018-09-14T05:44:08.839Z,83.10
2018-09-14T05:46:37.576Z,82.60
2018-09-14T05:49:06.780Z,83.00
2018-09-14T05:51:35.432Z,82.90
2018-09-14T05:54:04.810Z,83.30
2018-09-14T05:56:34.028Z,82.40
2018-09-14T05:59:02.397Z,82.30
2018-09-14T06:01:31.951Z,83.00
2018-09-14T06:04:00.329Z,83.60
2018-09-14T06:06:35.381Z,83.40
2018-09-14T06:09:07.360Z,82.80
2018-09-14T06:11:36.068Z,82.70
2018-09-14T06:14:05.946Z,82.90
2018-09-14T06:16:35.757Z,82.50
2018-09-14T06:19:04.917Z,82.10
2018-09-14T06:21:33.915Z,82.70
2018-09-14T06:24:03.209Z,82.20
2018-09-14T06:26:32.680Z,81.60
2018-09-14T06:29:01.401Z,81.60
2018-09-14T06:31:30.092Z,81.10
2018-09-14T06:33:59.163Z,77.90
2018-09-14T06:36:28.584Z,78.50
2018-09-14T06:38:57.180Z,77.70
2018-09-14T06:41:25.808Z,77.40
2018-09-14T06:43:54.810Z,76.00
2018-09-14T06:46:23.609Z,76.70
2018-09-14T06:48:51.912Z,76.60
2018-09-14T06:51:21.213Z,76.40
2018-09-14T06:53:49.485Z,75.10
2018-09-14T06:56:18.194Z,72.80
2018-09-14T06:58:46.734Z,72.40
2018-09-14T07:01:15.392Z,71.80
2018-09-14T07:03:44.003Z,71.10
2018-09-14T07:06:12.303Z,70.50
2018-09-14T07:08:40.993Z,69.60
2018-09-14T07:11:09.510Z,69.90
2018-09-14T07:13:37.708Z,69.10
2018-09-14T07:16:05.962Z,69.70
2018-09-14T07:18:34.339Z,71.30
2018-09-14T07:21:03.028Z,71.40
2018-09-14T07:23:31.527Z,71.90
2018-09-14T07:26:00.162Z,71.30
2018-09-14T07:28:28.503Z,71.60
2018-09-14T07:30:56.946Z,71.50
2018-09-14T07:33:25.208Z,72.20
2018-09-14T07:35:53.928Z,72.20
2018-09-14T07:38:22.265Z,72.00
2018-09-14T07:40:50.789Z,71.10
2018-09-14T07:43:19.024Z,71.90
2018-09-14T07:45:47.967Z,72.00
2018-09-14T07:48:16.753Z,71.70
2018-09-14T07:50:45.019Z,70.80
2018-09-14T07:53:13.350Z,70.40
2018-09-14T07:55:42.342Z,69.30
2018-09-14T07:58:10.876Z,68.70
2018-09-14T08:00:39.552Z,68.40
2018-09-14T08:03:08.376Z,67.10
2018-09-14T08:05:36.649Z,66.90
2018-09-14T08:08:04.969Z,65.10
2018-09-14T08:10:33.344Z,65.00
2018-09-14T08:13:01.932Z,65.90
2018-09-14T08:15:30.633Z,65.50
2018-09-14T08:17:58.928Z,65.70
2018-09-14T08:20:27.752Z,66.90
2018-09-14T08:25:37.058Z,65.60
2018-09-14T08:28:05.560Z,66.70
2018-09-14T08:30:33.999Z,66.50
2018-09-14T08:33:02.723Z,66.80
2018-09-14T08:35:32.167Z,67.70
2018-09-14T08:38:00.767Z,68.30
2018-09-14T08:40:29.414Z,68.60
2018-09-14T08:42:58.696Z,69.30
2018-09-14T08:45:27.135Z,69.60
2018-09-14T08:47:55.382Z,69.30
2018-09-14T08:50:24.707Z,69.90
2018-09-14T08:52:53.785Z,69.60
2018-09-14T08:55:22.324Z,69.60
2018-09-14T08:57:51.583Z,69.00
2018-09-14T09:00:25.116Z,67.60
2018-09-14T09:02:54.615Z,67.50
2018-09-14T09:05:24.134Z,66.80
2018-09-14T09:07:53.041Z,65.90
2018-09-14T09:10:21.829Z,64.90
2018-09-14T09:12:50.780Z,64.70
2018-09-14T09:15:19.426Z,64.30
2018-09-14T09:17:48.339Z,63.20
2018-09-14T09:20:17.191Z,63.00
2018-09-14T09:22:45.768Z,61.10
2018-09-14T09:25:14.277Z,60.50
2018-09-14T09:27:42.532Z,59.10
2018-09-14T09:30:10.762Z,58.20
2018-09-14T09:32:39.453Z,57.20
2018-09-14T09:35:09.229Z,52.90
2018-09-14T09:37:37.567Z,53.40
2018-09-14T09:40:06.717Z,51.30
2018-09-14T09:42:35.236Z,52.00
2018-09-14T09:45:04.127Z,51.00
2018-09-14T09:47:32.901Z,49.30
2018-09-14T09:50:01.759Z,49.10
2018-09-14T09:52:30.282Z,49.70
2018-09-14T09:54:58.851Z,50.40
2018-09-14T09:57:27.400Z,49.90
2018-09-14T09:59:55.685Z,49.90
2018-09-14T10:02:28.155Z,49.90
2018-09-14T10:05:01.870Z,49.70
2018-09-14T10:07:30.700Z,50.70
2018-09-14T10:09:59.176Z,50.20
2018-09-14T10:12:27.970Z,49.50
2018-09-14T10:14:56.300Z,50.90
2018-09-14T10:17:25.162Z,50.60
2018-09-14T10:19:53.411Z,51.10
2018-09-14T10:22:23.662Z,51.20
2018-09-14T10:24:53.859Z,51.80
2018-09-14T10:27:23.692Z,52.20
2018-09-14T10:29:53.579Z,53.80
2018-09-14T10:32:23.641Z,56.70
2018-09-14T10:34:53.552Z,58.70
2018-09-14T10:37:23.286Z,59.20
2018-09-14T10:39:53.757Z,60.60
2018-09-14T10:42:26.912Z,60.70
2018-09-14T10:44:57.705Z,61.20
2018-09-14T10:47:27.656Z,60.80
2018-09-14T10:49:55.980Z,60.70
2018-09-14T10:52:25.857Z,59.70
2018-09-14T10:54:54.689Z,60.40
2018-09-14T10:57:23.441Z,59.90
2018-09-14T10:59:52.262Z,59.40
2018-09-14T11:02:20.452Z,59.60
2018-09-14T11:04:49.897Z,58.50
2018-09-14T11:07:18.534Z,58.30
2018-09-14T11:09:47.239Z,55.50
2018-09-14T11:12:15.548Z,53.80
2018-09-14T11:14:45.335Z,54.70
2018-09-14T11:17:14.797Z,53.40
2018-09-14T11:19:45.014Z,53.70
2018-09-14T11:22:16.523Z,53.20
2018-09-14T11:24:47.280Z,53.30
2018-09-14T11:27:18.835Z,53.10
2018-09-14T11:29:47.077Z,52.70
2018-09-14T11:32:17.573Z,52.40
2018-09-14T11:34:46.211Z,51.50
2018-09-14T11:37:14.648Z,50.50
2018-09-14T11:39:42.927Z,49.60
2018-09-14T11:42:11.604Z,49.40
2018-09-14T11:44:40.399Z,49.40
2018-09-14T11:47:09.138Z,50.50
2018-09-14T11:49:37.389Z,50.10
2018-09-14T11:54:34.309Z,50.00
2018-09-14T11:57:02.931Z,50.30
2018-09-14T11:59:31.243Z,50.40
2018-09-14T12:01:59.844Z,50.70
2018-09-14T12:04:28.556Z,50.00
2018-09-14T12:06:56.779Z,49.10
2018-09-14T12:09:25.411Z,48.60
2018-09-14T12:11:53.648Z,49.00
2018-09-14T12:14:21.926Z,49.20
2018-09-14T12:16:51.038Z,49.00
2018-09-14T12:19:19.370Z,48.20
2018-09-14T12:21:47.661Z,48.20
2018-09-14T12:24:16.236Z,49.00
2018-09-14T12:26:44.717Z,48.20
2018-09-14T12:29:13.313Z,47.00
2018-09-14T12:31:41.559Z,47.30
2018-09-14T12:34:09.856Z,46.50
2018-09-14T12:36:38.333Z,46.10
2018-09-14T12:39:09.026Z,46.80
2018-09-14T12:41:37.449Z,47.00
2018-09-14T12:44:06.136Z,46.60
2018-09-14T12:46:34.412Z,46.00
2018-09-14T12:49:02.951Z,46.20
2018-09-14T12:51:32.104Z,46.50
2018-09-14T12:54:01.036Z,46.00
2018-09-14T12:56:29.820Z,45.30
2018-09-14T12:58:58.060Z,45.50
2018-09-14T13:01:26.599Z,45.40
2018-09-14T13:03:55.253Z,43.70
2018-09-14T13:06:23.560Z,43.30
2018-09-14T13:08:52.320Z,43.70
2018-09-14T13:11:21.078Z,44.60
2018-09-14T13:13:50.451Z,43.50
2018-09-14T13:16:18.900Z,41.80
2018-09-14T13:18:47.790Z,40.20
2018-09-14T13:21:16.097Z,38.50
2018-09-14T13:23:44.853Z,37.90
2018-09-14T13:26:13.148Z,36.90
2018-09-14T13:28:42.621Z,36.30
2018-09-14T13:31:10.916Z,34.30
2018-09-14T13:33:39.433Z,32.90
2018-09-14T13:36:08.100Z,31.10
2018-09-14T13:38:36.364Z,30.60
2018-09-14T13:41:04.597Z,30.50
2018-09-14T13:43:32.834Z,30.00
2018-09-14T13:46:01.049Z,28.20
2018-09-14T13:48:29.956Z,28.50
2018-09-14T13:50:58.480Z,29.10
2018-09-14T13:53:26.768Z,28.10
2018-09-14T13:55:55.247Z,26.00
2018-09-14T13:58:23.503Z,26.20
2018-09-14T14:00:51.905Z,26.70
2018-09-14T14:03:22.180Z,28.60
2018-09-14T14:05:50.694Z,31.10
2018-09-14T14:08:19.325Z,31.90
2018-09-14T14:10:47.927Z,32.90
2018-09-14T14:13:16.271Z,34.30
2018-09-14T14:15:44.853Z,35.40
2018-09-14T14:18:13.165Z,35.20
2018-09-14T14:20:41.781Z,35.80
2018-09-14T14:23:10.037Z,36.40
2018-09-14T14:25:38.584Z,37.10
2018-09-14T14:28:07.297Z,40.00
2018-09-14T14:30:36.722Z,40.60
2018-09-14T14:33:05.632Z,42.20
2018-09-14T14:35:34.296Z,43.10
2018-09-14T14:38:02.512Z,43.50
2018-09-14T14:40:30.892Z,44.20
2018-09-14T14:43:00.869Z,44.40
2018-09-14T14:45:30.003Z,44.90
2018-09-14T14:47:58.744Z,44.60
2018-09-14T14:50:27.229Z,43.50
2018-09-14T14:55:24.201Z,42.00
2018-09-14T14:57:52.769Z,42.80
2018-09-14T15:00:21.889Z,43.90
2018-09-14T15:02:50.253Z,44.50
2018-09-14T15:05:19.093Z,45.10
2018-09-14T15:10:16.428Z,45.00
2018-09-14T15:12:45.335Z,44.50
2018-09-14T15:15:13.610Z,42.40
2018-09-14T15:17:43.999Z,41.30
2018-09-14T15:20:12.362Z,39.60
2018-09-14T15:22:40.888Z,39.00
2018-09-14T15:25:09.400Z,39.70
2018-09-14T15:27:38.271Z,40.50
2018-09-14T15:30:06.827Z,40.70
2018-09-14T15:32:35.101Z,42.40
2018-09-14T15:35:03.436Z,42.90
2018-09-14T15:37:32.085Z,44.80
2018-09-14T15:40:00.389Z,45.20
2018-09-14T15:42:29.080Z,45.00
2018-09-14T15:44:57.509Z,45.40
2018-09-14T15:47:26.140Z,45.30
2018-09-14T15:49:54.961Z,42.70
2018-09-14T15:52:23.243Z,43.20
2018-09-14T15:54:52.156Z,43.70
2018-09-14T15:57:20.449Z,44.10
2018-09-14T15:59:48.972Z,45.00
2018-09-14T16:02:18.092Z,46.70
2018-09-14T16:04:46.658Z,46.60
2018-09-14T16:07:15.244Z,47.20
2018-09-14T16:09:45.808Z,47.40
2018-09-14T16:12:15.263Z,46.70
2018-09-14T16:14:45.136Z,45.10
2018-09-14T16:17:16.189Z,45.10
2018-09-14T16:19:47.294Z,45.00
2018-09-14T16:22:18.925Z,45.70
2018-09-14T16:24:49.667Z,47.00
2018-09-14T16:27:19.859Z,47.80
2018-09-14T16:29:50.081Z,48.20
2018-09-14T16:32:18.640Z,49.10
2018-09-14T16:34:47.399Z,50.00
2018-09-14T16:37:17.085Z,50.00
2018-09-14T16:39:46.358Z,50.40
2018-09-14T16:42:15.293Z,50.20
2018-09-14T16:44:44.249Z,50.80
2018-09-14T16:47:14.343Z,51.00
2018-09-14T16:49:42.989Z,51.10
2018-09-14T16:52:12.556Z,51.50
2018-09-14T16:54:41.785Z,51.80
2018-09-14T16:57:10.460Z,52.40
2018-09-14T16:59:39.416Z,52.80
2018-09-14T17:02:08.095Z,53.40
2018-09-14T17:04:39.145Z,54.00
2018-09-14T17:07:07.964Z,54.90
2018-09-14T17:09:37.310Z,54.00
2018-09-14T17:12:06.181Z,54.00
2018-09-14T17:14:34.883Z,54.00
2018-09-14T17:17:03.667Z,54.10
2018-09-14T17:19:32.145Z,54.50
2018-09-14T17:22:01.384Z,54.60
2018-09-14T17:24:31.684Z,54.90
2018-09-14T17:27:00.331Z,55.20
2018-09-14T17:29:28.615Z,55.20
2018-09-14T17:31:57.313Z,55.40
2018-09-14T17:34:25.544Z,55.60
2018-09-14T17:36:53.924Z,55.80
2018-09-14T17:39:23.063Z,56.20
2018-09-14T17:41:51.693Z,56.80
2018-09-14T17:44:20.196Z,56.40
2018-09-14T17:46:48.495Z,57.00
2018-09-14T17:49:16.686Z,56.90
2018-09-14T17:51:45.712Z,57.50
2018-09-14T17:54:14.501Z,57.60
2018-09-14T17:56:43.986Z,57.70
2018-09-14T17:59:12.278Z,57.70
2018-09-14T18:01:41.004Z,58.20
2018-09-14T18:04:10.056Z,58.00
2018-09-14T18:06:38.365Z,57.70
2018-09-14T18:09:10.571Z,57.80
2018-09-14T18:11:39.387Z,57.70
2018-09-14T18:14:08.220Z,57.70
2018-09-14T18:16:36.764Z,57.80
2018-09-14T18:19:05.326Z,58.10
2018-09-14T18:21:33.670Z,57.30
2018-09-14T18:24:12.759Z,56.60
2018-09-14T18:26:41.271Z,57.20
2018-09-14T18:29:10.508Z,57.10
2018-09-14T18:36:47.498Z,56.90
2018-09-14T18:39:16.389Z,57.70
2018-09-14T18:41:45.233Z,57.60
2018-09-14T18:44:19.159Z,58.00
2018-09-14T18:46:48.161Z,58.00
2018-09-14T18:49:16.439Z,58.70
2018-09-14T18:51:44.792Z,58.60
2018-09-14T18:54:13.857Z,58.70
2018-09-14T18:56:46.032Z,59.00
2018-09-14T18:59:14.855Z,59.20
2018-09-14T19:01:43.856Z,59.20
2018-09-14T19:04:12.219Z,59.30
2018-09-14T19:06:40.780Z,58.90
2018-09-14T19:09:10.816Z,59.20
2018-09-14T19:11:39.270Z,59.00
2018-09-14T19:14:07.590Z,59.10
2018-09-14T19:16:36.339Z,59.60
2018-09-14T19:19:09.269Z,59.40
2018-09-14T19:21:38.157Z,59.30
2018-09-14T19:24:06.672Z,59.20
2018-09-14T19:26:35.953Z,59.40
2018-09-14T19:29:04.171Z,59.50
2018-09-14T19:31:35.109Z,59.60
2018-09-14T19:34:03.569Z,59.60
2018-09-14T19:36:31.867Z,59.80
2018-09-14T19:39:00.228Z,59.70
2018-09-14T19:41:28.704Z,60.10
2018-09-14T19:43:56.938Z,60.30
2018-09-14T19:46:25.991Z,60.80
2018-09-14T19:48:54.443Z,60.30
2018-09-14T19:51:23.330Z,60.20
2018-09-14T19:53:51.883Z,60.10
2018-09-14T19:56:20.674Z,60.10
2018-09-14T19:58:49.109Z,60.00
2018-09-14T20:01:17.633Z,60.10
2018-09-14T20:03:45.891Z,60.00
2018-09-14T20:06:14.907Z,59.80
2018-09-14T20:08:43.193Z,59.70
2018-09-14T20:13:41.077Z,58.90
2018-09-14T20:16:09.355Z,59.50
2018-09-14T20:18:37.836Z,59.90
2018-09-14T20:21:06.386Z,60.00
2018-09-14T20:23:34.792Z,59.90
2018-09-14T20:26:03.008Z,59.70
2018-09-14T20:28:31.785Z,59.80
2018-09-14T20:31:00.447Z,60.00
2018-09-14T20:33:29.279Z,59.30
2018-09-14T20:35:57.606Z,59.80
2018-09-14T20:38:26.556Z,59.80
2018-09-14T20:40:54.827Z,59.60
2018-09-14T20:43:24.144Z,59.70
2018-09-14T20:45:54.057Z,59.60
2018-09-14T20:48:22.759Z,59.50
2018-09-14T20:50:51.944Z,59.30
2018-09-14T20:53:21.479Z,59.50
2018-09-14T20:55:51.250Z,59.40
2018-09-14T20:58:21.309Z,59.50
2018-09-14T21:00:50.956Z,59.20
2018-09-14T21:03:20.419Z,59.40
2018-09-14T21:05:49.003Z,59.40
2018-09-14T21:08:17.400Z,59.60
2018-09-14T21:10:46.804Z,60.40
2018-09-14T21:13:15.106Z,59.80
2018-09-14T21:15:43.372Z,59.80
2018-09-14T21:18:11.835Z,60.40
2018-09-14T21:20:40.099Z,60.10
2018-09-14T21:23:08.407Z,60.10
2018-09-14T21:25:36.866Z,59.90
2018-09-14T21:28:05.077Z,60.80
2018-09-14T21:30:33.863Z,61.10
2018-09-14T21:33:02.622Z,61.10
2018-09-14T21:35:31.042Z,61.20
2018-09-14T21:37:59.713Z,61.20
2018-09-14T21:40:28.109Z,61.90
2018-09-14T21:42:56.913Z,61.30
2018-09-14T21:45:28.078Z,61.80
2018-09-14T21:47:56.287Z,61.50
2018-09-14T21:50:24.685Z,61.60
2018-09-14T21:52:53.196Z,61.70
2018-09-14T21:55:21.491Z,61.90
2018-09-14T21:57:49.717Z,62.10
2018-09-14T22:00:23.477Z,62.00
2018-09-14T22:02:51.972Z,62.20
2018-09-14T22:05:20.194Z,61.90
2018-09-14T22:07:48.541Z,61.80
2018-09-14T22:10:17.125Z,61.80
2018-09-14T22:12:45.638Z,61.80
2018-09-14T22:15:14.027Z,61.90
2018-09-14T22:17:43.073Z,62.20
2018-09-14T22:20:11.307Z,62.10
2018-09-14T22:22:39.845Z,62.50
2018-09-14T22:25:08.612Z,62.20
2018-09-14T22:27:37.261Z,62.50
2018-09-14T22:30:07.048Z,62.20
2018-09-14T22:32:35.393Z,62.10
2018-09-14T22:35:03.623Z,62.50
2018-09-14T22:37:31.825Z,62.60
2018-09-14T22:40:00.633Z,62.90
2018-09-14T22:42:28.860Z,62.90
2018-09-14T22:44:57.070Z,62.70
2018-09-14T22:47:25.684Z,62.50
2018-09-14T22:49:53.888Z,62.70
2018-09-14T22:52:22.154Z,62.70
2018-09-14T22:54:50.726Z,62.80
2018-09-14T22:57:19.317Z,62.60
2018-09-14T22:59:47.854Z,62.60
2018-09-14T23:02:16.158Z,62.80
2018-09-14T23:04:44.625Z,62.90
2018-09-14T23:07:12.921Z,63.50
2018-09-14T23:09:41.550Z,63.40
2018-09-14T23:12:09.799Z,63.50
2018-09-14T23:14:38.333Z,63.50
2018-09-14T23:17:08.431Z,63.10
2018-09-14T23:19:37.777Z,63.80
2018-09-14T23:22:06.349Z,63.70
2018-09-14T23:24:34.603Z,63.70
2018-09-14T23:27:03.066Z,63.50
2018-09-14T23:29:32.491Z,63.60
2018-09-14T23:32:00.981Z,62.90
2018-09-14T23:34:29.460Z,63.50
2018-09-14T23:36:58.029Z,63.50
2018-09-14T23:39:26.268Z,63.60
2018-09-14T23:41:54.803Z,62.90
2018-09-14T23:44:22.999Z,63.10
2018-09-14T23:46:51.250Z,63.60
2018-09-14T23:49:19.576Z,63.50
2018-09-14T23:51:47.871Z,63.50
2018-09-14T23:54:16.073Z,63.50
2018-09-14T23:56:44.629Z,63.60
2018-09-14T23:59:13.100Z,63.60
